Terminal Aerodrome Forecast
Issued by NWS Sterling, VA

Home | Current Version | Previous Version | Text Only | Print | Product List | Glossary On
Versions: 1 2 3 4 5 6 7 8 9 10 11 12 13 14 15 16 17 18 19 20
000
FTUS41 KLWX 280500
TAFIAD
TAF
KIAD 280534Z 2806/2912 31004KT P6SM SCT050 BKN250
     FM281400 34008KT P6SM FEW050 SCT250
     FM290300 01004KT P6SM FEW250=

USA.gov is the U.S. government's official web portal to all federal, state and local government web resources and services.